Riley, Oregon
Current Conditions -  °F | °C
As of 2:53 PM on Wednesday 22 Oct 2014 (Local Time) from KBNO Reporting Station
Scattered Clouds Scattered Clouds  
Wind Chill: 61°   Ceiling: Unl
Heat Index: 61°   Visibility: 10mi
Dew Point: 32°   Wind: 13mph
Humidity: 34%   Direction: 160°SSE
Pressure: 29.98"   Gusts: NA
Location:  43.54°N, 119.51°W
Report Text: KBNO 222153Z AUTO 16011KT 10SM SCT085 16/00 A2998 RMK AO2 SLP155 T01610000
Loading
Personal Weather Stations






























Interactive Weather Map
Tropical Storm Tracking
New forecast layout! Learn more

10-Day Weather Forecast

Advertisements
Track Severe Weather on mobile